KACK

Nantucket Memorial Airport

Nantucket, Massachusetts, USA
METAR KACK 231353Z 08011KT 10SM CLR 05/M01 A3065 RMK AO2 SLP377 T00501006 $
Observed Flight Rules
Feb-23 @ 13:53 UTC (38 minutes ago) Visual Flight Rules
Wind Visibility Clouds
80° at 11 knots 10 miles
  • Clear skies
Temperatures Readings
Current 5°C / 41°F
Dewpoint -1°C / 30°F
Humidity 66%
Altimeter 30.65" Hg
Pressure 1037.7 hPa
Elevation 16
METAR KACK 231353Z 08011KT 10SM CLR 05/M01 A3065 RMK AO2 SLP377 T00501006 $
Observed Flight Rules
Feb-23 @ 13:53 UTC
(38 minutes ago)
VFR
Wind Visibility
80° at 11 knots 10 miles
Clouds
  • Clear skies
Temperature Dewpoint
5°C / 41°F -1°C / 30°F
Humidity Altimeter Pressure
66% 30.65" Hg 1037.7 hPa